createdAt,value
2023-03-23T00:00:18.681Z,69.34
2023-03-23T00:01:18.650Z,69.82
2023-03-23T00:02:18.621Z,69.55
2023-03-23T00:03:18.596Z,69.14
2023-03-23T00:04:18.568Z,69.24
2023-03-23T00:05:18.566Z,69.34
2023-03-23T00:06:18.522Z,69.31
2023-03-23T00:07:18.491Z,69.62
2023-03-23T00:08:18.461Z,69.34
2023-03-23T00:09:18.451Z,68.70
2023-03-23T00:10:18.408Z,68.60
2023-03-23T00:11:18.383Z,68.70
2023-03-23T00:12:18.357Z,69.11
2023-03-23T00:13:18.333Z,69.31
2023-03-23T00:14:18.303Z,69.31
2023-03-23T00:15:18.278Z,70.06
2023-03-23T00:16:18.251Z,68.84
2023-03-23T00:17:18.224Z,69.31
2023-03-23T00:18:18.197Z,69.75
2023-03-23T00:19:18.171Z,70.06
2023-03-23T00:20:18.143Z,69.62
2023-03-23T00:21:18.139Z,69.65
2023-03-23T00:22:18.102Z,68.80
2023-03-23T00:23:18.065Z,69.65
2023-03-23T00:24:18.043Z,69.85
2023-03-23T00:25:18.039Z,70.37
2023-03-23T00:26:17.988Z,69.45
2023-03-23T00:27:17.958Z,70.06
2023-03-23T00:28:17.930Z,70.06
2023-03-23T00:29:17.903Z,69.85
2023-03-23T00:30:17.892Z,69.96
2023-03-23T00:31:17.853Z,70.29
2023-03-23T00:32:17.829Z,70.20
2023-03-23T00:33:17.798Z,70.88
2023-03-23T00:34:17.772Z,71.83
2023-03-23T00:35:17.799Z,71.12
2023-03-23T00:36:17.720Z,71.32
2023-03-23T00:37:17.713Z,71.12
2023-03-23T00:38:17.676Z,71.32
2023-03-23T00:39:17.641Z,70.91
2023-03-23T00:40:17.613Z,70.71
2023-03-23T00:41:17.587Z,70.29
2023-03-23T00:42:17.560Z,70.47
2023-03-23T00:43:17.542Z,70.71
2023-03-23T00:44:17.506Z,69.58
2023-03-23T00:45:17.480Z,69.75
2023-03-23T00:46:17.453Z,68.93
2023-03-23T00:47:17.428Z,69.75
2023-03-23T00:48:17.398Z,69.65
2023-03-23T00:49:17.373Z,68.73
2023-03-23T00:50:19.790Z,69.65
2023-03-23T00:51:17.323Z,69.75
2023-03-23T00:52:17.293Z,69.75
2023-03-23T00:53:17.297Z,69.34
2023-03-23T00:54:17.236Z,68.93
2023-03-23T00:55:17.213Z,69.55
2023-03-23T00:56:17.186Z,68.63
2023-03-23T00:57:17.161Z,69.75
2023-03-23T00:58:17.132Z,69.65
2023-03-23T00:59:17.107Z,69.55
2023-03-23T01:00:17.081Z,68.84
2023-03-23T01:01:17.059Z,68.32
2023-03-23T01:02:17.026Z,69.34
2023-03-23T01:03:17.002Z,69.85
2023-03-23T01:04:16.981Z,69.24
2023-03-23T01:05:16.947Z,68.52
2023-03-23T01:06:16.925Z,68.42
2023-03-23T01:07:16.892Z,68.52
2023-03-23T01:08:16.862Z,69.82
2023-03-23T01:09:16.862Z,69.55
2023-03-23T01:10:16.812Z,69.04
2023-03-23T01:11:16.783Z,69.45
2023-03-23T01:12:16.756Z,70.26
2023-03-23T01:13:16.732Z,69.75
2023-03-23T01:14:16.701Z,69.34
2023-03-23T01:15:16.676Z,69.75
2023-03-23T01:16:16.656Z,69.75
2023-03-23T01:17:16.628Z,69.45
2023-03-23T01:18:16.623Z,68.93
2023-03-23T01:19:16.568Z,69.75
2023-03-23T01:20:16.540Z,69.55
2023-03-23T01:21:16.523Z,69.55
2023-03-23T01:22:16.504Z,69.75
2023-03-23T01:23:16.461Z,69.85
2023-03-23T01:24:16.437Z,69.75
2023-03-23T01:25:16.433Z,69.11
2023-03-23T01:26:16.386Z,69.34
2023-03-23T01:27:16.354Z,69.34
2023-03-23T01:28:16.330Z,69.01
2023-03-23T01:29:16.303Z,69.55
2023-03-23T01:30:16.278Z,69.04
2023-03-23T01:31:16.290Z,69.24
2023-03-23T01:32:16.219Z,69.14
2023-03-23T01:33:16.194Z,69.24
2023-03-23T01:34:16.164Z,68.84
2023-03-23T01:35:16.224Z,69.75
2023-03-23T01:36:16.113Z,69.04
2023-03-23T01:37:16.087Z,69.34
2023-03-23T01:38:16.060Z,69.04
2023-03-23T01:39:16.034Z,69.24
2023-03-23T01:40:16.012Z,69.24
2023-03-23T01:41:16.008Z,69.14
2023-03-23T01:42:15.954Z,68.84
2023-03-23T01:43:15.951Z,68.63
2023-03-23T01:44:15.901Z,68.22
2023-03-23T01:45:15.876Z,68.52
2023-03-23T01:46:15.849Z,68.49
2023-03-23T01:47:15.823Z,68.52
2023-03-23T01:48:15.793Z,68.52
2023-03-23T01:49:15.778Z,68.19
2023-03-23T01:50:15.759Z,68.52
2023-03-23T01:51:15.716Z,68.19
2023-03-23T01:52:15.688Z,68.39
2023-03-23T01:53:15.665Z,68.19
2023-03-23T01:54:15.635Z,68.05
2023-03-23T01:55:15.637Z,68.36
2023-03-23T01:56:15.597Z,68.16
2023-03-23T01:57:15.583Z,68.57
2023-03-23T01:58:15.530Z,68.36
2023-03-23T01:59:15.504Z,68.87
2023-03-23T02:00:15.476Z,68.90
2023-03-23T02:01:15.450Z,69.11
2023-03-23T02:02:15.423Z,69.21
2023-03-23T02:03:17.308Z,68.90
2023-03-23T02:04:15.370Z,69.72
2023-03-23T02:05:15.345Z,69.11
2023-03-23T02:06:15.315Z,69.01
2023-03-23T02:07:15.292Z,68.90
2023-03-23T02:08:15.264Z,69.21
2023-03-23T02:09:15.237Z,69.72
2023-03-23T02:10:15.211Z,69.31
2023-03-23T02:11:22.062Z,69.42
2023-03-23T02:12:15.154Z,69.93
2023-03-23T02:13:15.150Z,70.13
2023-03-23T02:14:15.102Z,70.34
2023-03-23T02:15:15.077Z,69.93
2023-03-23T02:16:15.053Z,69.93
2023-03-23T02:17:15.022Z,69.11
2023-03-23T02:18:15.003Z,69.11
2023-03-23T02:19:14.970Z,69.72
2023-03-23T02:20:14.945Z,71.05
2023-03-23T02:21:14.914Z,69.62
2023-03-23T02:22:14.895Z,70.54
2023-03-23T02:23:14.860Z,71.36
2023-03-23T02:24:14.877Z,71.39
2023-03-23T02:25:14.831Z,70.95
2023-03-23T02:26:14.781Z,71.80
2023-03-23T02:27:14.759Z,71.19
2023-03-23T02:28:14.724Z,70.67
2023-03-23T02:29:14.726Z,70.84
2023-03-23T02:30:14.675Z,71.29
2023-03-23T02:31:14.659Z,71.80
2023-03-23T02:32:14.625Z,71.70
2023-03-23T02:33:14.593Z,71.70
2023-03-23T02:34:14.579Z,71.59
2023-03-23T02:35:14.547Z,71.80
2023-03-23T02:36:14.513Z,72.00
2023-03-23T02:37:14.488Z,71.70
2023-03-23T02:38:14.460Z,72.41
2023-03-23T02:39:14.434Z,72.41
2023-03-23T02:40:14.408Z,72.75
2023-03-23T02:41:14.380Z,72.75
2023-03-23T02:42:15.635Z,72.82
2023-03-23T02:43:14.328Z,72.82
2023-03-23T02:44:14.299Z,71.90
2023-03-23T02:45:14.294Z,71.39
2023-03-23T02:46:14.245Z,71.59
2023-03-23T02:47:14.220Z,70.57
2023-03-23T02:48:14.191Z,70.13
2023-03-23T02:49:14.175Z,70.03
2023-03-23T02:50:14.138Z,70.34
2023-03-23T02:51:14.112Z,70.23
2023-03-23T02:52:14.092Z,71.05
2023-03-23T02:53:14.058Z,70.95
2023-03-23T02:54:14.031Z,70.84
2023-03-23T02:55:14.010Z,71.66
2023-03-23T02:56:13.975Z,71.46
2023-03-23T02:57:13.950Z,71.59
2023-03-23T02:58:13.924Z,71.46
2023-03-23T02:59:13.904Z,71.90
2023-03-23T03:00:13.869Z,72.41
2023-03-23T03:01:13.862Z,72.31
2023-03-23T03:02:13.816Z,71.59
2023-03-23T03:03:13.790Z,70.98
2023-03-23T03:04:13.760Z,71.19
2023-03-23T03:05:13.736Z,70.98
2023-03-23T03:06:13.720Z,71.36
2023-03-23T03:07:13.681Z,71.59
2023-03-23T03:08:13.653Z,70.64
2023-03-23T03:09:13.629Z,70.43
2023-03-23T03:10:17.281Z,70.54
2023-03-23T03:11:13.579Z,70.37
2023-03-23T03:12:13.549Z,70.98
2023-03-23T03:13:13.520Z,71.59
2023-03-23T03:14:13.491Z,71.19
2023-03-23T03:15:13.467Z,72.00
2023-03-23T03:16:13.438Z,72.11
2023-03-23T03:17:13.432Z,73.44
2023-03-23T03:18:13.388Z,73.23
2023-03-23T03:19:13.362Z,72.82
2023-03-23T03:20:13.356Z,72.31
2023-03-23T03:21:13.304Z,72.00
2023-03-23T03:22:13.280Z,72.14
2023-03-23T03:23:13.253Z,72.72
2023-03-23T03:24:13.230Z,72.31
2023-03-23T03:25:18.054Z,73.23
2023-03-23T03:26:13.183Z,72.45
2023-03-23T03:27:13.151Z,72.45
2023-03-23T03:28:13.118Z,71.49
2023-03-23T03:29:13.095Z,70.37
2023-03-23T03:30:13.066Z,69.85
2023-03-23T03:31:13.039Z,69.96
2023-03-23T03:32:13.012Z,69.04
2023-03-23T03:33:13.005Z,67.57
2023-03-23T03:34:12.959Z,67.37
2023-03-23T03:35:12.942Z,66.93
2023-03-23T03:36:12.945Z,66.42
2023-03-23T03:37:12.879Z,66.42
2023-03-23T03:38:12.852Z,66.83
2023-03-23T03:39:12.823Z,66.93
2023-03-23T03:40:12.802Z,66.21
2023-03-23T03:41:12.771Z,65.30
2023-03-23T03:42:12.749Z,64.96
2023-03-23T03:43:12.724Z,64.86
2023-03-23T03:44:12.690Z,64.96
2023-03-23T03:45:12.664Z,64.75
2023-03-23T03:46:12.672Z,64.65
2023-03-23T03:47:12.611Z,65.16
2023-03-23T03:48:12.586Z,65.16
2023-03-23T03:49:12.590Z,64.96
2023-03-23T03:50:12.530Z,65.37
2023-03-23T03:51:12.503Z,65.57
2023-03-23T03:52:12.477Z,65.16
2023-03-23T03:53:12.448Z,64.45
2023-03-23T03:54:12.425Z,64.96
2023-03-23T03:55:12.397Z,64.96
2023-03-23T03:56:12.374Z,65.06
2023-03-23T03:57:12.343Z,65.47
2023-03-23T03:58:12.315Z,65.26
2023-03-23T03:59:21.499Z,64.96
2023-03-23T04:00:12.262Z,64.65
2023-03-23T04:01:12.234Z,64.86
2023-03-23T04:02:12.213Z,65.23
2023-03-23T04:03:12.181Z,65.03
2023-03-23T04:04:12.160Z,64.86
2023-03-23T04:05:12.164Z,64.86
2023-03-23T04:06:12.103Z,65.26
2023-03-23T04:07:12.075Z,65.23
2023-03-23T04:08:12.048Z,65.03
2023-03-23T04:09:12.020Z,65.16
2023-03-23T04:10:12.001Z,65.57
2023-03-23T04:11:11.968Z,66.08
2023-03-23T04:12:11.942Z,65.67
2023-03-23T04:13:11.918Z,66.18
2023-03-23T04:14:11.891Z,65.98
2023-03-23T04:15:11.861Z,67.10
2023-03-23T04:16:11.837Z,66.39
2023-03-23T04:17:11.807Z,66.11
2023-03-23T04:18:11.783Z,66.83
2023-03-23T04:19:12.017Z,66.21
2023-03-23T04:20:11.728Z,66.72
2023-03-23T04:21:11.720Z,67.13
2023-03-23T04:22:11.674Z,66.83
2023-03-23T04:23:11.647Z,66.83
2023-03-23T04:24:23.375Z,66.83
2023-03-23T04:25:11.599Z,67.65
2023-03-23T04:26:11.568Z,67.24
2023-03-23T04:27:11.541Z,67.82
2023-03-23T04:28:11.513Z,68.02
2023-03-23T04:29:11.490Z,67.95
2023-03-23T04:30:11.461Z,68.16
2023-03-23T04:31:11.458Z,68.57
2023-03-23T04:32:11.413Z,68.16
2023-03-23T04:33:11.382Z,68.43
2023-03-23T04:34:11.352Z,68.46
2023-03-23T04:35:12.858Z,68.46
2023-03-23T04:36:11.316Z,68.46
2023-03-23T04:37:11.292Z,68.57
2023-03-23T04:38:11.250Z,68.77
2023-03-23T04:39:11.221Z,68.77
2023-03-23T04:40:11.199Z,69.18
2023-03-23T04:41:11.168Z,69.11
2023-03-23T04:42:11.141Z,69.01
2023-03-23T04:43:11.114Z,69.52
2023-03-23T04:44:11.092Z,69.52
2023-03-23T04:45:11.063Z,69.82
2023-03-23T04:46:11.039Z,69.72
2023-03-23T04:47:11.008Z,69.62
2023-03-23T04:48:10.981Z,69.93
2023-03-23T04:49:11.004Z,69.82
2023-03-23T04:50:10.929Z,69.38
2023-03-23T04:51:10.907Z,69.11
2023-03-23T04:52:10.874Z,68.46
2023-03-23T04:53:10.867Z,67.27
2023-03-23T04:54:10.824Z,67.44
2023-03-23T04:55:10.797Z,66.62
2023-03-23T04:56:10.770Z,66.42
2023-03-23T04:57:10.742Z,64.89
2023-03-23T04:58:10.715Z,64.96
2023-03-23T04:59:10.688Z,65.09
2023-03-23T05:00:10.662Z,64.65
2023-03-23T05:01:10.635Z,64.96
2023-03-23T05:02:14.593Z,64.14
2023-03-23T05:03:10.584Z,63.40
2023-03-23T05:04:10.554Z,62.78
2023-03-23T05:05:10.534Z,62.55
2023-03-23T05:06:10.501Z,62.55
2023-03-23T05:07:10.474Z,63.81
2023-03-23T05:08:10.447Z,63.19
2023-03-23T05:09:10.440Z,63.29
2023-03-23T05:10:10.393Z,62.04
2023-03-23T05:11:10.367Z,63.09
2023-03-23T05:12:10.341Z,63.29
2023-03-23T05:13:10.313Z,62.99
2023-03-23T05:14:10.290Z,63.19
2023-03-23T05:15:10.259Z,63.19
2023-03-23T05:16:10.233Z,63.70
2023-03-23T05:17:10.205Z,64.01
2023-03-23T05:18:10.180Z,63.29
2023-03-23T05:19:10.251Z,63.26
2023-03-23T05:20:10.126Z,63.81
2023-03-23T05:21:10.099Z,64.79
2023-03-23T05:22:10.074Z,63.78
2023-03-23T05:23:10.047Z,63.37
2023-03-23T05:24:10.037Z,63.87
2023-03-23T05:25:10.014Z,65.10
2023-03-23T05:26:09.969Z,64.49
2023-03-23T05:27:09.939Z,65.20
2023-03-23T05:28:09.916Z,65.61
2023-03-23T05:29:09.888Z,66.77
2023-03-23T05:30:09.859Z,67.61
2023-03-23T05:31:09.832Z,67.61
2023-03-23T05:32:09.806Z,67.61
2023-03-23T05:33:09.780Z,67.51
2023-03-23T05:34:09.753Z,67.34
2023-03-23T05:35:09.725Z,67.85
2023-03-23T05:36:09.720Z,67.41
2023-03-23T05:37:11.082Z,67.61
2023-03-23T05:38:09.654Z,68.12
2023-03-23T05:39:09.618Z,67.71
2023-03-23T05:40:09.589Z,68.12
2023-03-23T05:41:09.584Z,67.44
2023-03-23T05:42:09.539Z,67.44
2023-03-23T05:43:09.511Z,67.85
2023-03-23T05:44:09.483Z,67.65
2023-03-23T05:45:09.459Z,67.41
2023-03-23T05:46:09.432Z,66.90
2023-03-23T05:47:09.404Z,64.96
2023-03-23T05:48:09.378Z,64.55
2023-03-23T05:49:09.353Z,64.93
2023-03-23T05:50:09.328Z,64.11
2023-03-23T05:51:09.296Z,61.32
2023-03-23T05:52:09.270Z,61.32
2023-03-23T05:53:09.250Z,62.62
2023-03-23T05:54:09.217Z,62.42
2023-03-23T05:55:09.189Z,61.80
2023-03-23T05:56:09.167Z,62.52
2023-03-23T05:57:09.157Z,62.93
2023-03-23T05:58:09.111Z,61.98
2023-03-23T05:59:09.086Z,61.60
2023-03-23T06:00:09.058Z,61.37
2023-03-23T06:01:09.031Z,62.32
2023-03-23T06:02:09.005Z,61.57
2023-03-23T06:03:08.993Z,62.59
2023-03-23T06:04:08.952Z,61.30
2023-03-23T06:05:08.924Z,62.80
2023-03-23T06:06:08.904Z,61.37
2023-03-23T06:07:08.872Z,61.50
2023-03-23T06:08:08.845Z,61.88
2023-03-23T06:09:08.817Z,62.11
2023-03-23T06:10:08.795Z,61.37
2023-03-23T06:11:08.765Z,61.16
2023-03-23T06:12:08.741Z,61.68
2023-03-23T06:13:08.732Z,61.47
2023-03-23T06:14:08.695Z,62.18
2023-03-23T06:15:08.665Z,60.76
2023-03-23T06:16:08.632Z,59.84
2023-03-23T06:17:08.607Z,59.71
2023-03-23T06:18:08.582Z,60.96
2023-03-23T06:19:08.553Z,61.14
2023-03-23T06:20:08.532Z,61.04
2023-03-23T06:21:08.554Z,61.47
2023-03-23T06:22:08.475Z,60.22
2023-03-23T06:23:08.450Z,60.12
2023-03-23T06:24:08.423Z,60.12
2023-03-23T06:25:08.394Z,59.61
2023-03-23T06:26:08.371Z,59.51
2023-03-23T06:27:08.346Z,59.81
2023-03-23T06:28:08.322Z,60.19
2023-03-23T06:29:08.310Z,58.36
2023-03-23T06:30:08.266Z,59.07
2023-03-23T06:31:08.257Z,59.38
2023-03-23T06:32:08.211Z,59.55
2023-03-23T06:33:08.184Z,59.35
2023-03-23T06:34:08.170Z,59.45
2023-03-23T06:35:08.144Z,58.64
2023-03-23T06:36:08.132Z,58.53
2023-03-23T06:37:08.082Z,57.42
2023-03-23T06:38:08.058Z,57.72
2023-03-23T06:39:08.028Z,58.61
2023-03-23T06:40:08.003Z,59.32
2023-03-23T06:41:07.976Z,56.88
2023-03-23T06:42:07.958Z,57.39
2023-03-23T06:43:07.929Z,57.29
2023-03-23T06:44:07.899Z,56.88
2023-03-23T06:45:07.892Z,56.98
2023-03-23T06:46:07.845Z,56.14
2023-03-23T06:47:07.820Z,56.55
2023-03-23T06:48:07.797Z,56.55
2023-03-23T06:49:07.770Z,55.73
2023-03-23T06:50:07.746Z,55.51
2023-03-23T06:51:07.722Z,56.42
2023-03-23T06:52:07.693Z,56.82
2023-03-23T06:53:07.666Z,55.91
2023-03-23T06:54:07.640Z,56.42
2023-03-23T06:55:07.614Z,56.32
2023-03-23T06:56:07.591Z,57.23
2023-03-23T06:57:07.562Z,55.60
2023-03-23T06:58:07.539Z,55.91
2023-03-23T06:59:07.513Z,56.21
2023-03-23T07:00:09.433Z,56.12
2023-03-23T07:01:07.483Z,53.96
2023-03-23T07:02:07.434Z,54.26
2023-03-23T07:03:07.413Z,53.14
2023-03-23T07:04:07.384Z,53.32
2023-03-23T07:05:07.354Z,53.32
2023-03-23T07:06:08.205Z,53.22
2023-03-23T07:07:07.304Z,53.72
2023-03-23T07:08:07.279Z,52.99
2023-03-23T07:09:07.253Z,53.30
2023-03-23T07:10:07.238Z,53.39
2023-03-23T07:11:07.201Z,51.87
2023-03-23T07:12:07.177Z,53.30
2023-03-23T07:13:07.149Z,52.48
2023-03-23T07:14:07.126Z,52.79
2023-03-23T07:15:07.098Z,52.58
2023-03-23T07:16:07.094Z,52.38
2023-03-23T07:17:07.080Z,53.27
2023-03-23T07:18:07.025Z,53.37
2023-03-23T07:19:06.995Z,52.15
2023-03-23T07:20:06.977Z,51.65
2023-03-23T07:21:06.952Z,52.86
2023-03-23T07:22:06.924Z,52.46
2023-03-23T07:23:06.896Z,51.65
2023-03-23T07:24:06.874Z,51.95
2023-03-23T07:25:06.852Z,53.04
2023-03-23T07:26:06.825Z,51.72
2023-03-23T07:27:06.804Z,51.82
2023-03-23T07:28:06.904Z,51.32
2023-03-23T07:29:06.746Z,52.44
2023-03-23T07:30:06.725Z,52.25
2023-03-23T07:31:06.696Z,51.85
2023-03-23T07:32:06.689Z,52.15
2023-03-23T07:33:06.665Z,51.82
2023-03-23T07:34:06.622Z,52.23
2023-03-23T07:35:07.249Z,52.53
2023-03-23T07:36:06.610Z,52.23
2023-03-23T07:37:06.545Z,51.42
2023-03-23T07:38:06.519Z,52.51
2023-03-23T07:39:06.496Z,53.12
2023-03-23T07:40:06.475Z,51.70
2023-03-23T07:41:06.444Z,52.84
2023-03-23T07:42:06.419Z,51.09
2023-03-23T07:43:06.397Z,51.50
2023-03-23T07:44:06.369Z,53.12
2023-03-23T07:45:06.342Z,52.41
2023-03-23T07:46:06.326Z,51.39
2023-03-23T07:47:06.295Z,51.29
2023-03-23T07:48:12.731Z,51.70
2023-03-23T07:49:06.266Z,51.70
2023-03-23T07:50:06.226Z,50.08
2023-03-23T07:51:06.196Z,51.29
2023-03-23T07:52:06.170Z,50.08
2023-03-23T07:53:06.143Z,51.29
2023-03-23T07:54:06.713Z,50.18
2023-03-23T07:55:06.096Z,51.80
2023-03-23T07:56:06.081Z,51.70
2023-03-23T07:57:06.048Z,52.41
2023-03-23T07:58:06.020Z,52.11
2023-03-23T07:59:06.260Z,52.41
2023-03-23T08:00:05.976Z,51.09
2023-03-23T08:01:05.946Z,51.70
2023-03-23T08:02:05.923Z,49.85
2023-03-23T08:03:05.894Z,51.67
2023-03-23T08:04:05.873Z,51.47
2023-03-23T08:05:05.866Z,49.85
2023-03-23T08:06:05.825Z,51.07
2023-03-23T08:07:05.798Z,51.29
2023-03-23T08:08:05.775Z,51.39
2023-03-23T08:09:05.748Z,51.39
2023-03-23T08:10:05.725Z,51.39
2023-03-23T08:11:05.699Z,51.29
2023-03-23T08:12:05.671Z,51.39
2023-03-23T08:13:05.648Z,51.29
2023-03-23T08:14:05.622Z,51.09
2023-03-23T08:15:05.598Z,50.89
2023-03-23T08:16:05.573Z,53.22
2023-03-23T08:17:05.548Z,53.22
2023-03-23T08:18:05.525Z,51.70
2023-03-23T08:19:08.488Z,51.29
2023-03-23T08:20:05.473Z,51.90
2023-03-23T08:21:05.471Z,51.39
2023-03-23T08:22:05.422Z,52.99
2023-03-23T08:23:05.401Z,52.99
2023-03-23T08:24:05.380Z,50.96
2023-03-23T08:25:05.351Z,51.27
2023-03-23T08:26:05.324Z,49.95
2023-03-23T08:27:05.300Z,51.37
2023-03-23T08:28:05.283Z,50.76
2023-03-23T08:29:05.249Z,50.76
2023-03-23T08:30:05.227Z,50.96
2023-03-23T08:31:05.201Z,51.78
2023-03-23T08:32:05.177Z,51.47
2023-03-23T08:33:05.150Z,51.35
2023-03-23T08:34:05.127Z,50.94
2023-03-23T08:35:05.107Z,51.75
2023-03-23T08:36:05.127Z,50.13
2023-03-23T08:37:05.078Z,50.21
2023-03-23T08:38:05.026Z,49.90
2023-03-23T08:39:05.004Z,49.80
2023-03-23T08:40:05.012Z,48.28
2023-03-23T08:41:04.961Z,47.70
2023-03-23T08:42:04.933Z,49.32
2023-03-23T08:43:04.905Z,49.70
2023-03-23T08:44:04.878Z,49.50
2023-03-23T08:45:04.855Z,50.38
2023-03-23T08:46:04.844Z,49.19
2023-03-23T08:47:04.807Z,49.78
2023-03-23T08:48:04.790Z,49.17
2023-03-23T08:49:04.760Z,47.17
2023-03-23T08:50:04.737Z,46.67
2023-03-23T08:51:04.711Z,47.17
2023-03-23T08:52:04.686Z,46.87
2023-03-23T08:53:04.685Z,47.17
2023-03-23T08:54:04.637Z,47.75
2023-03-23T08:55:04.615Z,46.95
2023-03-23T08:56:04.588Z,46.95
2023-03-23T08:57:04.567Z,47.25
2023-03-23T08:58:04.541Z,48.26
2023-03-23T08:59:04.520Z,47.75
2023-03-23T09:00:04.492Z,46.95
2023-03-23T09:01:04.471Z,47.25
2023-03-23T09:02:04.445Z,47.96
2023-03-23T09:03:04.426Z,47.66
2023-03-23T09:04:04.397Z,48.36
2023-03-23T09:05:04.376Z,48.46
2023-03-23T09:06:04.347Z,47.86
2023-03-23T09:07:04.338Z,47.35
2023-03-23T09:08:04.300Z,47.45
2023-03-23T09:09:04.334Z,47.05
2023-03-23T09:10:04.265Z,47.55
2023-03-23T09:11:04.228Z,47.47
2023-03-23T09:12:04.204Z,49.38
2023-03-23T09:13:04.183Z,49.58
2023-03-23T09:14:04.154Z,48.67
2023-03-23T09:15:04.133Z,48.44
2023-03-23T09:16:04.112Z,47.66
2023-03-23T09:17:04.097Z,49.27
2023-03-23T09:18:04.059Z,46.95
2023-03-23T09:19:04.036Z,47.45
2023-03-23T09:20:04.012Z,47.66
2023-03-23T09:21:03.988Z,48.54
2023-03-23T09:22:03.971Z,47.15
2023-03-23T09:23:03.940Z,47.05
2023-03-23T09:24:03.915Z,48.46
2023-03-23T09:25:05.013Z,47.35
2023-03-23T09:26:03.868Z,48.26
2023-03-23T09:27:03.845Z,47.66
2023-03-23T09:28:03.819Z,48.67
2023-03-23T09:29:03.797Z,47.55
2023-03-23T09:30:03.776Z,47.25
2023-03-23T09:31:03.750Z,47.55
2023-03-23T09:32:03.729Z,47.66
2023-03-23T09:33:03.703Z,48.59
2023-03-23T09:34:03.678Z,49.38
2023-03-23T09:35:03.652Z,48.67
2023-03-23T09:36:03.684Z,47.05
2023-03-23T09:37:03.604Z,48.16
2023-03-23T09:38:03.579Z,47.07
2023-03-23T09:39:03.565Z,48.67
2023-03-23T09:40:06.807Z,48.77
2023-03-23T09:41:03.545Z,47.96
2023-03-23T09:42:03.483Z,47.35
2023-03-23T09:43:03.461Z,48.26
2023-03-23T09:44:03.438Z,47.25
2023-03-23T09:45:03.416Z,47.86
2023-03-23T09:46:03.387Z,47.05
2023-03-23T09:47:03.367Z,47.45
2023-03-23T09:48:03.340Z,47.55
2023-03-23T09:49:03.324Z,47.35
2023-03-23T09:50:03.291Z,47.15
2023-03-23T09:51:03.269Z,47.45
2023-03-23T09:52:03.241Z,47.15
2023-03-23T09:53:03.216Z,48.36
2023-03-23T09:54:03.201Z,48.57
2023-03-23T09:55:03.174Z,49.07
2023-03-23T09:56:03.146Z,47.25
2023-03-23T09:57:03.140Z,47.05
2023-03-23T09:58:03.098Z,47.75
2023-03-23T09:59:03.076Z,47.55
2023-03-23T10:00:03.050Z,46.84
2023-03-23T10:01:03.052Z,47.15
2023-03-23T10:02:03.002Z,48.26
2023-03-23T10:03:02.986Z,47.35
2023-03-23T10:04:02.957Z,47.66
2023-03-23T10:05:02.932Z,47.45
2023-03-23T10:06:02.906Z,47.55
2023-03-23T10:07:02.884Z,47.55
2023-03-23T10:08:02.859Z,47.58
2023-03-23T10:09:02.836Z,49.19
2023-03-23T10:10:02.813Z,49.07
2023-03-23T10:11:02.806Z,49.98
2023-03-23T10:12:02.777Z,49.98
2023-03-23T10:13:02.758Z,51.22
2023-03-23T10:14:02.715Z,51.22
2023-03-23T10:15:02.692Z,50.82
2023-03-23T10:16:02.666Z,51.70
2023-03-23T10:17:02.659Z,50.92
2023-03-23T10:18:02.618Z,53.25
2023-03-23T10:19:02.595Z,50.11
2023-03-23T10:20:02.577Z,51.73
2023-03-23T10:21:02.550Z,52.03
2023-03-23T10:22:02.524Z,51.50
2023-03-23T10:23:02.503Z,51.12
2023-03-23T10:24:02.473Z,50.01
2023-03-23T10:25:02.456Z,50.84
2023-03-23T10:26:02.425Z,51.95
2023-03-23T10:27:02.403Z,51.95
2023-03-23T10:28:02.380Z,51.55
2023-03-23T10:29:02.380Z,49.83
2023-03-23T10:30:02.334Z,51.27
2023-03-23T10:31:02.307Z,51.14
2023-03-23T10:32:02.282Z,50.03
2023-03-23T10:33:02.261Z,50.94
2023-03-23T10:34:02.236Z,50.13
2023-03-23T10:35:02.222Z,50.54
2023-03-23T10:36:02.209Z,50.84
2023-03-23T10:37:02.164Z,51.32
2023-03-23T10:38:02.136Z,52.23
2023-03-23T10:39:02.113Z,49.80
2023-03-23T10:40:02.088Z,49.70
2023-03-23T10:41:02.068Z,51.22
2023-03-23T10:42:02.041Z,50.11
2023-03-23T10:43:02.017Z,51.45
2023-03-23T10:44:01.992Z,50.82
2023-03-23T10:45:01.989Z,51.53
2023-03-23T10:46:02.236Z,51.50
2023-03-23T10:47:01.924Z,53.72
2023-03-23T10:48:01.898Z,52.08
2023-03-23T10:49:01.880Z,49.15
2023-03-23T10:50:01.848Z,50.38
2023-03-23T10:51:01.827Z,49.58
2023-03-23T10:52:01.800Z,49.98
2023-03-23T10:53:01.778Z,49.98
2023-03-23T10:54:01.754Z,49.58
2023-03-23T10:55:01.735Z,50.09
2023-03-23T10:56:01.715Z,50.11
2023-03-23T10:57:03.841Z,50.18
2023-03-23T10:58:01.696Z,50.18
2023-03-23T10:59:01.636Z,50.69
2023-03-23T11:00:01.611Z,50.06
2023-03-23T11:01:01.609Z,50.16
2023-03-23T11:02:01.571Z,51.35
2023-03-23T11:03:01.547Z,50.34
2023-03-23T11:04:01.514Z,51.63
2023-03-23T11:05:07.884Z,50.80
2023-03-23T11:06:01.469Z,50.49
2023-03-23T11:07:01.446Z,49.38
2023-03-23T11:08:01.420Z,49.54
2023-03-23T11:09:01.399Z,49.44
2023-03-23T11:10:01.377Z,48.30
2023-03-23T11:11:01.352Z,48.22
2023-03-23T11:12:02.317Z,48.43
2023-03-23T11:13:01.309Z,49.11
2023-03-23T11:14:01.280Z,48.73
2023-03-23T11:15:01.259Z,48.45
2023-03-23T11:16:01.237Z,49.05
2023-03-23T11:17:07.072Z,48.75
2023-03-23T11:18:01.196Z,49.18
2023-03-23T11:19:01.166Z,49.58
2023-03-23T11:20:01.141Z,49.76
2023-03-23T11:21:01.120Z,50.04
2023-03-23T11:22:01.096Z,51.13
2023-03-23T11:23:01.085Z,49.11
2023-03-23T11:24:09.728Z,47.58
2023-03-23T11:25:01.028Z,48.69
2023-03-23T11:26:01.009Z,48.61
2023-03-23T11:27:00.988Z,48.49
2023-03-23T11:28:00.964Z,47.58
2023-03-23T11:29:00.938Z,47.78
2023-03-23T11:30:00.918Z,47.17
2023-03-23T11:31:00.894Z,47.67
2023-03-23T11:32:00.870Z,45.38
2023-03-23T11:33:00.875Z,47.34
2023-03-23T11:34:06.242Z,47.47
2023-03-23T11:35:13.812Z,48.30
2023-03-23T11:36:00.822Z,49.28
2023-03-23T11:37:00.779Z,49.16
2023-03-23T11:38:00.735Z,49.66
2023-03-23T11:39:00.713Z,48.98
2023-03-23T11:40:00.691Z,49.16
2023-03-23T11:41:00.667Z,48.85
2023-03-23T11:42:09.016Z,50.04
2023-03-23T11:43:00.627Z,48.53
2023-03-23T11:44:00.599Z,47.44
2023-03-23T11:45:00.586Z,49.16
2023-03-23T11:46:00.564Z,48.55
2023-03-23T11:47:00.533Z,48.25
2023-03-23T11:48:00.508Z,50.67
2023-03-23T11:49:00.519Z,49.72
2023-03-23T11:50:00.463Z,49.62
2023-03-23T11:51:00.442Z,48.26
2023-03-23T11:52:00.421Z,46.45
2023-03-23T11:53:00.401Z,49.16
2023-03-23T11:54:00.374Z,45.54
2023-03-23T11:55:00.355Z,47.15
2023-03-23T11:56:00.365Z,44.31
2023-03-23T11:57:00.309Z,46.60
2023-03-23T11:58:00.286Z,46.00
2023-03-23T11:59:00.265Z,44.39
2023-03-23T12:00:00.241Z,45.59
2023-03-23T12:01:00.227Z,45.37
2023-03-23T12:02:11.632Z,43.87
2023-03-23T12:03:00.182Z,44.77
2023-03-23T12:04:00.151Z,44.97
2023-03-23T12:05:00.188Z,46.15
2023-03-23T12:06:00.122Z,43.84
2023-03-23T12:07:00.104Z,44.35
2023-03-23T12:08:00.070Z,44.65
2023-03-23T12:09:00.047Z,43.95
2023-03-23T12:10:00.027Z,45.25
2023-03-23T12:11:01.791Z,44.97
2023-03-23T12:11:59.979Z,44.19
2023-03-23T12:12:59.957Z,45.12
2023-03-23T12:13:59.938Z,44.45
2023-03-23T12:14:59.989Z,46.04
2023-03-23T12:15:59.893Z,47.05
2023-03-23T12:16:59.870Z,47.05
2023-03-23T12:17:59.853Z,46.93
2023-03-23T12:18:59.830Z,44.41
2023-03-23T12:19:59.807Z,44.93
2023-03-23T12:20:59.805Z,46.62
2023-03-23T12:21:59.763Z,48.24
2023-03-23T12:22:59.744Z,45.27
2023-03-23T12:24:01.456Z,44.75
2023-03-23T12:24:59.697Z,45.03
2023-03-23T12:25:59.677Z,44.43
2023-03-23T12:26:59.655Z,43.52
2023-03-23T12:27:59.635Z,43.72
2023-03-23T12:28:59.611Z,44.04
2023-03-23T12:29:59.592Z,44.04
2023-03-23T12:30:59.570Z,44.17
2023-03-23T12:31:59.551Z,45.47
2023-03-23T12:32:59.528Z,45.09
2023-03-23T12:33:59.508Z,45.19
2023-03-23T12:34:59.491Z,45.70
2023-03-23T12:35:59.497Z,45.19
2023-03-23T12:36:59.462Z,45.39
2023-03-23T12:37:59.426Z,44.89
2023-03-23T12:38:59.406Z,43.08
2023-03-23T12:39:59.379Z,45.19
2023-03-23T12:40:59.357Z,44.73
2023-03-23T12:41:59.341Z,44.02
2023-03-23T12:42:59.316Z,44.65
2023-03-23T12:43:59.292Z,45.56
2023-03-23T12:44:59.272Z,44.63
2023-03-23T12:45:59.252Z,45.44
2023-03-23T12:46:59.230Z,44.33
2023-03-23T12:47:59.209Z,45.16
2023-03-23T12:48:59.188Z,45.16
2023-03-23T12:49:59.169Z,46.06
2023-03-23T12:50:59.144Z,45.44
2023-03-23T12:51:59.135Z,45.36